createdAt,value
2022-10-23T00:01:21.459Z,6.37
2022-10-23T00:03:51.765Z,6.28
2022-10-23T00:06:18.920Z,6.45
2022-10-23T00:08:49.269Z,6.13
2022-10-23T00:11:23.463Z,6.07
2022-10-23T00:13:51.937Z,7.27
2022-10-23T00:16:18.879Z,6.60
2022-10-23T00:18:45.909Z,6.55
2022-10-23T00:21:15.528Z,7.30
2022-10-23T00:23:42.568Z,7.20
2022-10-23T00:26:09.935Z,7.70
2022-10-23T00:28:37.869Z,5.75
2022-10-23T00:31:06.161Z,6.70
2022-10-23T00:33:33.743Z,5.50
2022-10-23T00:36:00.801Z,6.95
2022-10-23T00:38:28.098Z,7.80
2022-10-23T00:40:55.105Z,7.38
2022-10-23T00:43:27.169Z,5.55
2022-10-23T00:45:54.133Z,6.28
2022-10-23T00:48:21.959Z,6.55
2022-10-23T00:50:50.740Z,5.57
2022-10-23T00:53:21.391Z,7.40
2022-10-23T00:55:51.909Z,6.88
2022-10-23T00:58:21.149Z,5.95
2022-10-23T01:00:54.812Z,7.10
2022-10-23T01:03:25.373Z,5.53
2022-10-23T01:06:07.540Z,7.45
2022-10-23T01:08:50.443Z,6.78
2022-10-23T01:11:43.616Z,6.82
2022-10-23T01:14:23.602Z,7.65
2022-10-23T01:16:50.450Z,7.03
2022-10-23T01:19:27.715Z,7.38
2022-10-23T01:22:26.624Z,6.13
2022-10-23T01:25:02.362Z,7.97
2022-10-23T01:27:40.260Z,6.25
2022-10-23T01:30:11.585Z,6.40
2022-10-23T01:33:15.464Z,6.35
2022-10-23T01:35:58.192Z,6.93
2022-10-23T01:38:32.716Z,6.70
2022-10-23T01:41:04.903Z,6.43
2022-10-23T01:43:45.275Z,6.70
2022-10-23T01:46:16.642Z,5.38
2022-10-23T01:48:51.470Z,5.18
2022-10-23T01:51:20.940Z,6.70
2022-10-23T01:53:50.869Z,7.10
2022-10-23T01:56:22.829Z,5.20
2022-10-23T01:58:53.156Z,6.97
2022-10-23T02:01:23.979Z,6.88
2022-10-23T02:03:52.376Z,6.97
2022-10-23T02:06:19.711Z,6.53
2022-10-23T02:08:47.099Z,6.30
2022-10-23T02:11:17.015Z,6.50
2022-10-23T02:13:55.131Z,4.97
2022-10-23T02:16:48.428Z,5.55
2022-10-23T02:19:21.444Z,6.80
2022-10-23T02:21:53.964Z,7.20
2022-10-23T02:24:43.648Z,7.25
2022-10-23T02:27:13.995Z,6.35
2022-10-23T02:30:04.430Z,6.03
2022-10-23T02:32:32.201Z,7.78
2022-10-23T02:34:59.773Z,7.00
2022-10-23T02:37:26.956Z,7.50
2022-10-23T02:39:55.433Z,7.82
2022-10-23T02:42:38.623Z,7.38
2022-10-23T02:45:13.655Z,7.75
2022-10-23T02:47:59.851Z,7.93
2022-10-23T02:50:53.483Z,8.00
2022-10-23T02:53:42.377Z,8.25
2022-10-23T02:56:11.559Z,8.27
2022-10-23T02:58:41.134Z,8.20
2022-10-23T03:01:18.668Z,5.70
2022-10-23T03:03:52.835Z,7.38
2022-10-23T03:06:20.661Z,6.82
2022-10-23T03:09:05.127Z,6.15
2022-10-23T03:11:32.249Z,5.72
2022-10-23T03:13:59.814Z,8.50
2022-10-23T03:16:27.705Z,8.73
2022-10-23T03:18:55.024Z,8.77
2022-10-23T03:21:22.299Z,8.18
2022-10-23T03:23:49.245Z,7.60
2022-10-23T03:26:16.392Z,7.23
2022-10-23T03:28:43.539Z,7.57
2022-10-23T03:31:10.428Z,6.63
2022-10-23T03:33:37.396Z,7.75
2022-10-23T03:36:04.498Z,8.13
2022-10-23T03:38:31.696Z,8.40
2022-10-23T03:40:58.582Z,7.28
2022-10-23T03:43:25.436Z,8.32
2022-10-23T03:45:53.310Z,7.53
2022-10-23T03:48:20.189Z,7.40
2022-10-23T03:50:47.056Z,8.30
2022-10-23T03:53:13.994Z,8.20
2022-10-23T03:55:41.115Z,8.65
2022-10-23T03:58:09.083Z,7.43
2022-10-23T04:00:36.042Z,8.07
2022-10-23T04:03:05.618Z,7.23
2022-10-23T04:05:32.866Z,6.90
2022-10-23T04:07:59.703Z,7.43
2022-10-23T04:10:26.596Z,6.85
2022-10-23T04:12:53.549Z,7.60
2022-10-23T04:15:20.496Z,6.93
2022-10-23T04:17:47.539Z,7.65
2022-10-23T04:20:14.701Z,8.75
2022-10-23T04:22:41.968Z,8.85
2022-10-23T04:25:09.642Z,8.88
2022-10-23T04:27:36.609Z,9.33
2022-10-23T04:30:04.221Z,9.80
2022-10-23T04:32:31.199Z,7.90
2022-10-23T04:34:58.056Z,8.40
2022-10-23T04:37:24.955Z,9.82
2022-10-23T04:39:51.978Z,10.20
2022-10-23T04:42:18.907Z,9.40
2022-10-23T04:44:45.771Z,9.70
2022-10-23T04:47:12.739Z,10.68
2022-10-23T04:49:39.639Z,10.80
2022-10-23T04:52:06.558Z,9.63
2022-10-23T04:54:38.034Z,10.70
2022-10-23T04:57:05.023Z,11.25
2022-10-23T04:59:31.811Z,10.90
2022-10-23T05:01:58.819Z,11.75
2022-10-23T05:04:25.850Z,12.17
2022-10-23T05:06:52.780Z,12.30
2022-10-23T05:09:22.717Z,13.07
2022-10-23T05:11:52.218Z,13.00
2022-10-23T05:14:22.972Z,12.98
2022-10-23T05:17:00.497Z,12.03
2022-10-23T05:19:38.035Z,12.82
2022-10-23T05:22:06.041Z,12.80
2022-10-23T05:24:34.763Z,12.90
2022-10-23T05:27:02.045Z,13.10
2022-10-23T05:29:29.367Z,12.83
2022-10-23T05:32:01.414Z,13.80
2022-10-23T05:34:31.142Z,14.45
2022-10-23T05:36:58.402Z,14.50
2022-10-23T05:39:25.441Z,14.18
2022-10-23T05:41:52.391Z,14.93
2022-10-23T05:44:19.330Z,14.85
2022-10-23T05:46:46.292Z,15.40
2022-10-23T05:49:13.752Z,15.02
2022-10-23T05:51:41.008Z,15.13
2022-10-23T05:54:08.834Z,15.00
2022-10-23T05:56:37.506Z,14.63
2022-10-23T05:59:04.990Z,14.80
2022-10-23T06:01:32.060Z,14.35
2022-10-23T06:04:16.111Z,14.57
2022-10-23T06:06:46.123Z,13.83
2022-10-23T06:09:16.214Z,14.25
2022-10-23T06:11:43.493Z,14.32
2022-10-23T06:14:13.661Z,13.45
2022-10-23T06:16:43.608Z,11.65
2022-10-23T06:19:14.266Z,12.87
2022-10-23T06:21:41.926Z,10.82
2022-10-23T06:24:09.373Z,10.90
2022-10-23T06:26:39.038Z,10.68
2022-10-23T06:29:10.937Z,10.80
2022-10-23T06:31:41.225Z,10.50
2022-10-23T06:34:13.812Z,10.60
2022-10-23T06:36:40.919Z,10.32
2022-10-23T06:39:07.886Z,10.25
2022-10-23T06:41:37.765Z,11.93
2022-10-23T06:44:05.214Z,10.27
2022-10-23T06:46:38.409Z,11.45
2022-10-23T06:49:05.348Z,10.52
2022-10-23T06:51:35.276Z,10.93
2022-10-23T06:54:02.331Z,11.25
2022-10-23T06:56:29.270Z,10.40
2022-10-23T06:58:56.300Z,10.20
2022-10-23T07:01:23.480Z,11.20
2022-10-23T07:03:50.606Z,10.65
2022-10-23T07:06:17.900Z,10.13
2022-10-23T07:08:47.984Z,10.43
2022-10-23T07:11:15.006Z,10.40
2022-10-23T07:13:41.867Z,10.15
2022-10-23T07:16:16.587Z,10.18
2022-10-23T07:18:44.134Z,11.05
2022-10-23T07:21:11.247Z,10.00
2022-10-23T07:23:38.550Z,10.50
2022-10-23T07:26:16.057Z,10.23
2022-10-23T07:28:47.713Z,9.82
2022-10-23T07:31:14.857Z,10.02
2022-10-23T07:33:42.080Z,10.10
2022-10-23T07:36:11.608Z,8.70
2022-10-23T07:38:38.912Z,9.30
2022-10-23T07:41:08.927Z,8.50
2022-10-23T07:43:41.621Z,6.85
2022-10-23T07:46:08.866Z,6.33
2022-10-23T07:48:37.617Z,6.07
2022-10-23T07:51:16.237Z,2.17
2022-10-23T07:53:44.511Z,2.80
2022-10-23T07:56:17.695Z,2.10
2022-10-23T07:58:44.951Z,2.20
2022-10-23T08:01:32.581Z,2.03
2022-10-23T08:04:00.375Z,2.55
2022-10-23T08:06:27.415Z,2.40
2022-10-23T08:08:54.452Z,2.30
2022-10-23T08:11:24.470Z,2.27
2022-10-23T08:13:53.136Z,2.42
2022-10-23T08:16:20.726Z,2.30
2022-10-23T08:18:47.878Z,2.60
2022-10-23T08:21:14.785Z,2.88
2022-10-23T08:23:42.377Z,2.70
2022-10-23T08:26:10.649Z,3.10
2022-10-23T08:28:38.310Z,2.85
2022-10-23T08:31:14.474Z,2.90
2022-10-23T08:33:41.677Z,3.35
2022-10-23T08:36:24.463Z,3.63
2022-10-23T08:38:53.713Z,3.42
2022-10-23T08:41:38.729Z,3.58
2022-10-23T08:44:27.172Z,3.45
2022-10-23T08:47:06.950Z,4.53
2022-10-23T08:49:49.749Z,4.20
2022-10-23T08:52:25.969Z,4.03
2022-10-23T08:55:03.167Z,3.97
2022-10-23T08:57:40.120Z,4.45
2022-10-23T09:00:15.429Z,4.20
2022-10-23T09:02:48.823Z,4.23
2022-10-23T09:05:37.027Z,3.85
2022-10-23T09:08:19.100Z,4.55
2022-10-23T09:11:02.491Z,4.10
2022-10-23T09:13:32.795Z,3.45
2022-10-23T09:16:31.696Z,3.40
2022-10-23T09:18:59.449Z,3.45
2022-10-23T09:21:32.838Z,4.00
2022-10-23T09:24:02.321Z,4.10
2022-10-23T09:26:29.225Z,3.60
2022-10-23T09:29:08.515Z,3.87
2022-10-23T09:31:35.586Z,3.80
2022-10-23T09:34:02.709Z,3.90
2022-10-23T09:36:33.486Z,4.00
2022-10-23T09:39:25.329Z,3.90
2022-10-23T09:41:56.326Z,4.17
2022-10-23T09:44:31.724Z,3.65
2022-10-23T09:47:20.221Z,3.92
2022-10-23T09:49:53.832Z,3.40
2022-10-23T09:52:54.361Z,3.80
2022-10-23T09:55:24.671Z,3.90
2022-10-23T09:57:54.002Z,4.50
2022-10-23T10:00:24.404Z,4.72
2022-10-23T10:03:06.684Z,3.30
2022-10-23T10:05:35.080Z,3.90
2022-10-23T10:08:05.842Z,3.70
2022-10-23T10:10:40.492Z,3.78
2022-10-23T10:13:35.044Z,3.47
2022-10-23T10:16:28.232Z,3.70
2022-10-23T10:19:21.184Z,3.67
2022-10-23T10:22:01.127Z,3.50
2022-10-23T10:25:05.456Z,3.20
2022-10-23T10:27:38.559Z,3.65
2022-10-23T10:30:37.912Z,3.50
2022-10-23T10:33:22.578Z,3.58
2022-10-23T10:36:02.477Z,3.17
2022-10-23T10:38:41.681Z,3.65
2022-10-23T10:41:17.844Z,3.42
2022-10-23T10:44:12.831Z,4.10
2022-10-23T10:46:49.100Z,3.20
2022-10-23T10:49:18.817Z,3.10
2022-10-23T10:52:01.036Z,4.15
2022-10-23T10:54:49.924Z,4.50
2022-10-23T10:57:37.663Z,4.00
2022-10-23T11:00:14.219Z,3.80
2022-10-23T11:02:50.771Z,3.77
2022-10-23T11:05:39.203Z,4.20
2022-10-23T11:08:14.973Z,4.10
2022-10-23T11:10:46.614Z,4.75
2022-10-23T11:13:38.342Z,4.18
2022-10-23T11:16:23.125Z,4.43
2022-10-23T11:19:21.056Z,3.78
2022-10-23T11:22:18.851Z,4.30
2022-10-23T11:25:23.220Z,4.57
2022-10-23T11:28:20.887Z,4.97
2022-10-23T11:31:12.335Z,4.20
2022-10-23T11:34:13.640Z,4.50
2022-10-23T11:36:53.068Z,4.38
2022-10-23T11:39:25.038Z,4.60
2022-10-23T11:41:58.226Z,4.70
2022-10-23T11:44:39.261Z,4.43
2022-10-23T11:47:45.868Z,4.05
2022-10-23T11:50:14.029Z,3.95
2022-10-23T11:53:13.698Z,3.70
2022-10-23T11:56:01.470Z,3.75
2022-10-23T11:58:48.407Z,3.37
2022-10-23T12:01:22.812Z,3.92
2022-10-23T12:04:21.022Z,5.40
2022-10-23T12:06:52.903Z,3.10
2022-10-23T12:09:44.040Z,2.95
2022-10-23T12:12:10.929Z,2.90
2022-10-23T12:14:45.283Z,3.00
2022-10-23T12:17:39.710Z,3.00
2022-10-23T12:20:09.434Z,3.00
2022-10-23T12:22:42.500Z,3.00
2022-10-23T12:25:15.907Z,2.93
2022-10-23T12:28:25.943Z,3.15
2022-10-23T12:31:26.566Z,3.00
2022-10-23T12:33:53.615Z,2.95
2022-10-23T12:36:20.613Z,3.33
2022-10-23T12:38:49.256Z,2.97
2022-10-23T12:41:28.344Z,3.03
2022-10-23T12:44:10.414Z,2.65
2022-10-23T12:46:41.441Z,3.22
2022-10-23T12:49:20.051Z,2.88
2022-10-23T12:51:56.163Z,2.73
2022-10-23T12:54:23.843Z,2.72
2022-10-23T12:56:51.344Z,2.92
2022-10-23T12:59:25.056Z,3.47
2022-10-23T13:01:53.197Z,2.95
2022-10-23T13:04:29.737Z,3.07
2022-10-23T13:07:01.834Z,3.08
2022-10-23T13:09:33.760Z,3.10
2022-10-23T13:12:03.619Z,2.92
2022-10-23T13:14:35.137Z,3.50
2022-10-23T13:17:05.432Z,3.80
2022-10-23T13:19:33.037Z,3.30
2022-10-23T13:22:01.518Z,3.42
2022-10-23T13:24:30.073Z,3.38
2022-10-23T13:26:58.394Z,3.17
2022-10-23T13:29:34.890Z,3.47
2022-10-23T13:32:24.790Z,3.10
2022-10-23T13:35:03.763Z,2.90
2022-10-23T13:37:31.417Z,3.25
2022-10-23T13:40:06.639Z,3.00
2022-10-23T13:42:33.665Z,3.00
2022-10-23T13:45:00.677Z,2.60
2022-10-23T13:47:27.973Z,3.17
2022-10-23T13:49:54.981Z,3.55
2022-10-23T13:52:23.343Z,3.58
2022-10-23T13:54:50.753Z,4.00
2022-10-23T13:57:18.400Z,3.60
2022-10-23T13:59:45.342Z,3.10
2022-10-23T14:02:22.111Z,3.47
2022-10-23T14:04:50.875Z,3.80
2022-10-23T14:07:18.147Z,3.50
2022-10-23T14:09:45.789Z,3.25
2022-10-23T14:12:12.984Z,3.95
2022-10-23T14:14:42.317Z,3.90
2022-10-23T14:17:09.397Z,4.22
2022-10-23T14:22:04.169Z,5.30
2022-10-23T14:24:31.216Z,5.13
2022-10-23T14:26:58.162Z,5.22
2022-10-23T14:29:25.299Z,4.93
2022-10-23T14:31:52.471Z,4.77
2022-10-23T14:34:19.685Z,5.13
2022-10-23T14:36:50.221Z,5.10
2022-10-23T14:39:18.555Z,5.18
2022-10-23T14:41:45.608Z,6.00
2022-10-23T14:44:12.815Z,5.27
2022-10-23T14:46:40.070Z,5.13
2022-10-23T14:49:07.332Z,6.13
2022-10-23T14:51:34.433Z,4.90
2022-10-23T14:54:10.169Z,5.25
2022-10-23T14:56:41.799Z,5.10
2022-10-23T14:59:11.828Z,5.57
2022-10-23T15:01:43.815Z,6.05
2022-10-23T15:04:15.073Z,5.30
2022-10-23T15:06:42.686Z,5.97
2022-10-23T15:09:09.965Z,5.50
2022-10-23T15:11:37.188Z,5.70
2022-10-23T15:14:04.349Z,4.95
2022-10-23T15:16:31.629Z,5.18
2022-10-23T15:18:59.375Z,4.32
2022-10-23T15:21:26.502Z,5.47
2022-10-23T15:23:53.535Z,4.80
2022-10-23T15:26:21.752Z,5.05
2022-10-23T15:28:57.344Z,4.90
2022-10-23T15:31:30.295Z,4.75
2022-10-23T15:33:57.832Z,4.60
2022-10-23T15:36:25.422Z,6.38
2022-10-23T15:38:52.965Z,5.88
2022-10-23T15:41:31.565Z,4.50
2022-10-23T15:44:00.227Z,5.25
2022-10-23T15:46:27.693Z,5.70
2022-10-23T15:48:54.852Z,5.47
2022-10-23T15:51:21.940Z,5.65
2022-10-23T15:53:49.058Z,6.07
2022-10-23T15:56:16.076Z,5.88
2022-10-23T15:58:43.385Z,5.77
2022-10-23T16:01:10.657Z,6.85
2022-10-23T16:03:39.026Z,6.78
2022-10-23T16:06:10.628Z,6.80
2022-10-23T16:08:38.142Z,7.20
2022-10-23T16:11:20.179Z,7.10
2022-10-23T16:13:48.872Z,6.70
2022-10-23T16:16:20.429Z,6.90
2022-10-23T16:18:47.813Z,5.60
2022-10-23T16:21:23.691Z,6.18
2022-10-23T16:23:55.222Z,6.20
2022-10-23T16:26:24.490Z,5.93
2022-10-23T16:29:00.882Z,5.70
2022-10-23T16:31:29.185Z,5.80
2022-10-23T16:34:00.498Z,4.93
2022-10-23T16:36:28.506Z,5.30
2022-10-23T16:38:56.039Z,5.40
2022-10-23T16:41:23.074Z,5.43
2022-10-23T16:43:50.572Z,5.20
2022-10-23T16:46:22.088Z,5.20
2022-10-23T16:48:51.905Z,4.83
2022-10-23T16:51:22.146Z,5.10
2022-10-23T16:53:49.657Z,4.82
2022-10-23T16:56:19.361Z,4.72
2022-10-23T16:58:46.274Z,4.82
2022-10-23T17:01:22.537Z,4.50
2022-10-23T17:03:51.351Z,4.57
2022-10-23T17:06:22.143Z,4.38
2022-10-23T17:08:49.841Z,4.80
2022-10-23T17:11:24.844Z,4.68
2022-10-23T17:13:58.487Z,4.40
2022-10-23T17:16:37.464Z,4.60
2022-10-23T17:19:15.898Z,5.07
2022-10-23T17:21:48.073Z,4.78
2022-10-23T17:24:15.049Z,4.68
2022-10-23T17:26:42.885Z,4.73
2022-10-23T17:29:11.079Z,4.80
2022-10-23T17:31:41.416Z,4.78
2022-10-23T17:34:12.665Z,6.03
2022-10-23T17:36:43.093Z,4.63
2022-10-23T17:39:12.860Z,4.77
2022-10-23T17:41:40.302Z,4.82
2022-10-23T17:44:07.392Z,5.00
2022-10-23T17:46:34.591Z,4.80
2022-10-23T17:49:03.571Z,5.20
2022-10-23T17:51:33.027Z,4.37
2022-10-23T17:54:02.056Z,5.00
2022-10-23T17:56:31.312Z,4.85
2022-10-23T17:59:12.019Z,4.10
2022-10-23T18:01:39.623Z,4.22
2022-10-23T18:04:11.447Z,5.20
2022-10-23T18:06:44.944Z,5.45
2022-10-23T18:09:12.342Z,5.10
2022-10-23T18:11:45.318Z,4.30
2022-10-23T18:14:15.932Z,4.18
2022-10-23T18:16:44.953Z,4.57
2022-10-23T18:19:11.902Z,4.60
2022-10-23T18:21:41.144Z,5.60
2022-10-23T18:24:08.625Z,5.30
2022-10-23T18:26:36.353Z,5.57
2022-10-23T18:29:05.198Z,5.37
2022-10-23T18:31:32.112Z,5.13
2022-10-23T18:34:02.199Z,5.22
2022-10-23T18:36:33.447Z,5.25
2022-10-23T18:39:00.824Z,5.57
2022-10-23T18:41:28.172Z,4.60
2022-10-23T18:43:55.533Z,4.55
2022-10-23T18:46:22.776Z,5.93
2022-10-23T18:48:50.537Z,6.20
2022-10-23T18:51:20.555Z,5.28
2022-10-23T18:53:47.953Z,7.20
2022-10-23T18:56:16.437Z,5.07
2022-10-23T18:58:43.339Z,6.90
2022-10-23T19:01:10.439Z,5.50
2022-10-23T19:03:37.386Z,6.80
2022-10-23T19:06:06.834Z,6.07
2022-10-23T19:08:37.176Z,6.47
2022-10-23T19:11:17.485Z,4.70
2022-10-23T19:13:44.714Z,5.38
2022-10-23T19:16:36.108Z,5.70
2022-10-23T19:19:14.131Z,5.47
2022-10-23T19:21:48.104Z,9.07
2022-10-23T19:24:32.168Z,6.72
2022-10-23T19:27:06.683Z,6.85
2022-10-23T19:29:33.940Z,6.93
2022-10-23T19:32:01.003Z,5.97
2022-10-23T19:34:28.133Z,6.50
2022-10-23T19:36:55.147Z,6.10
2022-10-23T19:39:22.962Z,6.28
2022-10-23T19:41:50.324Z,7.80
2022-10-23T19:44:17.885Z,5.90
2022-10-23T19:46:45.200Z,6.22
2022-10-23T19:49:13.106Z,7.57
2022-10-23T19:51:48.262Z,6.63
2022-10-23T19:54:18.259Z,6.63
2022-10-23T19:56:45.837Z,5.37
2022-10-23T19:59:13.073Z,4.05
2022-10-23T20:01:43.866Z,4.28
2022-10-23T20:04:13.508Z,4.45
2022-10-23T20:06:40.660Z,4.50
2022-10-23T20:09:09.118Z,4.47
2022-10-23T20:11:38.774Z,5.97
2022-10-23T20:14:06.607Z,7.53
2022-10-23T20:16:36.506Z,5.60
2022-10-23T20:19:08.524Z,6.38
2022-10-23T20:21:37.061Z,5.67
2022-10-23T20:24:04.397Z,4.32
2022-10-23T20:26:31.390Z,4.85
2022-10-23T20:28:58.609Z,6.22
2022-10-23T20:31:27.241Z,5.68
2022-10-23T20:33:54.975Z,6.63
2022-10-23T20:36:34.350Z,5.72
2022-10-23T20:39:10.763Z,5.70
2022-10-23T20:41:38.672Z,5.38
2022-10-23T20:44:08.794Z,4.25
2022-10-23T20:46:36.008Z,5.20
2022-10-23T20:49:03.346Z,4.80
2022-10-23T20:51:30.717Z,4.68
2022-10-23T20:53:59.582Z,8.88
2022-10-23T20:56:32.946Z,8.73
2022-10-23T20:59:11.156Z,7.73
2022-10-23T21:01:41.806Z,7.78
2022-10-23T21:04:11.231Z,8.35
2022-10-23T21:06:57.480Z,9.07
2022-10-23T21:09:30.635Z,9.88
2022-10-23T21:11:58.018Z,9.90
2022-10-23T21:14:25.168Z,9.45
2022-10-23T21:16:52.603Z,10.07
2022-10-23T21:19:22.199Z,9.88
2022-10-23T21:21:49.267Z,10.82
2022-10-23T21:24:17.741Z,9.70
2022-10-23T21:26:45.925Z,11.68
2022-10-23T21:29:18.388Z,10.73
2022-10-23T21:31:46.364Z,9.90
2022-10-23T21:34:13.705Z,9.13
2022-10-23T21:36:54.083Z,7.93
2022-10-23T21:39:28.831Z,7.03
2022-10-23T21:41:55.852Z,8.27
2022-10-23T21:44:22.824Z,5.10
2022-10-23T21:46:50.308Z,4.50
2022-10-23T21:49:17.502Z,4.77
2022-10-23T21:51:44.550Z,9.73
2022-10-23T21:54:14.599Z,9.55
2022-10-23T21:56:47.395Z,8.25
2022-10-23T21:59:17.870Z,7.90
2022-10-23T22:01:47.137Z,8.37
2022-10-23T22:04:16.301Z,7.35
2022-10-23T22:06:44.417Z,8.75
2022-10-23T22:09:17.138Z,9.73
2022-10-23T22:11:44.076Z,9.63
2022-10-23T22:14:15.117Z,9.37
2022-10-23T22:16:42.361Z,8.95
2022-10-23T22:19:11.984Z,8.90
2022-10-23T22:21:39.761Z,9.93
2022-10-23T22:24:07.003Z,8.82
2022-10-23T22:26:43.376Z,8.90
2022-10-23T22:29:19.449Z,9.82
2022-10-23T22:31:48.873Z,8.38
2022-10-23T22:34:47.941Z,9.43
2022-10-23T22:37:11.149Z,9.82
2022-10-23T22:39:38.598Z,8.77
2022-10-23T22:42:05.814Z,10.68
2022-10-23T22:44:32.930Z,10.60
2022-10-23T22:47:00.399Z,8.35
2022-10-23T22:49:27.597Z,8.05
2022-10-23T22:51:54.578Z,8.50
2022-10-23T22:54:21.337Z,8.85
2022-10-23T22:56:48.205Z,9.85
2022-10-23T22:59:15.139Z,7.25
2022-10-23T23:01:45.632Z,4.93
2022-10-23T23:04:32.921Z,11.53
2022-10-23T23:07:00.560Z,11.70
2022-10-23T23:09:28.504Z,12.25
2022-10-23T23:11:55.289Z,14.50
2022-10-23T23:14:24.082Z,15.32
2022-10-23T23:16:52.936Z,16.27
2022-10-23T23:19:20.601Z,12.43
2022-10-23T23:21:48.172Z,13.18
2022-10-23T23:24:17.991Z,8.57
2022-10-23T23:26:44.917Z,7.85
2022-10-23T23:29:12.297Z,12.33
2022-10-23T23:31:39.274Z,13.93
2022-10-23T23:34:06.459Z,14.98
2022-10-23T23:36:34.010Z,12.00
2022-10-23T23:39:01.474Z,7.32
2022-10-23T23:41:29.679Z,7.23
2022-10-23T23:43:58.356Z,6.75
2022-10-23T23:46:25.445Z,6.85
2022-10-23T23:48:52.490Z,7.57
2022-10-23T23:51:23.096Z,14.35
2022-10-23T23:53:50.621Z,14.60
2022-10-23T23:56:19.168Z,15.18
2022-10-23T23:58:46.734Z,14.88
